createdAt,value
2019-05-21T00:02:26.629Z,99.90
2019-05-21T00:04:54.065Z,99.90
2019-05-21T00:07:21.458Z,99.90
2019-05-21T00:09:48.858Z,99.90
2019-05-21T00:12:16.517Z,99.90
2019-05-21T00:14:43.919Z,99.90
2019-05-21T00:17:13.277Z,99.90
2019-05-21T00:19:40.584Z,99.90
2019-05-21T00:22:07.986Z,99.90
2019-05-21T00:24:35.810Z,99.90
2019-05-21T00:27:03.850Z,99.90
2019-05-21T00:30:08.362Z,99.90
2019-05-21T00:33:12.739Z,99.90
2019-05-21T00:36:17.411Z,99.90
2019-05-21T00:39:21.859Z,99.90
2019-05-21T00:42:01.210Z,99.90
2019-05-21T00:44:31.137Z,99.90
2019-05-21T00:46:58.547Z,99.90
2019-05-21T00:49:25.942Z,99.90
2019-05-21T00:52:06.468Z,99.90
2019-05-21T00:54:22.590Z,99.90
2019-05-21T00:56:50.008Z,99.90
2019-05-21T00:59:17.447Z,99.90
2019-05-21T01:01:44.857Z,99.90
2019-05-21T01:04:12.334Z,99.90
2019-05-21T01:06:40.272Z,99.90
2019-05-21T01:09:07.666Z,99.90
2019-05-21T01:11:35.059Z,99.90
2019-05-21T01:14:02.512Z,99.90
2019-05-21T01:16:29.915Z,99.90
2019-05-21T01:18:57.308Z,99.90
2019-05-21T01:21:24.993Z,99.90
2019-05-21T01:23:52.658Z,99.90
2019-05-21T01:26:20.327Z,99.90
2019-05-21T01:28:48.092Z,99.90
2019-05-21T01:31:15.496Z,99.90
2019-05-21T01:33:42.892Z,99.90
2019-05-21T01:36:10.470Z,99.90
2019-05-21T01:38:37.876Z,99.90
2019-05-21T01:41:05.266Z,99.90
2019-05-21T01:43:32.704Z,99.90
2019-05-21T01:46:00.091Z,99.90
2019-05-21T01:48:27.498Z,99.90
2019-05-21T01:50:55.275Z,99.90
2019-05-21T01:53:22.674Z,99.90
2019-05-21T01:55:52.008Z,99.90
2019-05-21T01:58:19.691Z,99.90
2019-05-21T02:00:47.071Z,99.90
2019-05-21T02:03:14.478Z,99.90
2019-05-21T02:05:41.898Z,99.90
2019-05-21T02:08:09.298Z,99.90
2019-05-21T02:10:36.682Z,99.90
2019-05-21T02:13:04.367Z,99.90
2019-05-21T02:15:31.747Z,99.90
2019-05-21T02:17:59.151Z,99.90
2019-05-21T02:20:26.648Z,99.90
2019-05-21T02:22:54.046Z,99.90
2019-05-21T02:25:21.680Z,99.90
2019-05-21T02:27:49.648Z,99.90
2019-05-21T02:30:17.272Z,99.90
2019-05-21T02:32:44.671Z,99.90
2019-05-21T02:35:12.211Z,99.90
2019-05-21T02:37:39.612Z,99.90
2019-05-21T02:40:07.408Z,99.90
2019-05-21T02:42:35.035Z,99.90
2019-05-21T02:45:02.435Z,99.90
2019-05-21T02:47:29.830Z,99.90
2019-05-21T02:49:57.720Z,99.90
2019-05-21T02:52:25.111Z,99.90
2019-05-21T02:54:52.547Z,99.90
2019-05-21T02:57:20.125Z,99.90
2019-05-21T02:59:49.317Z,99.90
2019-05-21T03:02:27.016Z,99.90
2019-05-21T03:04:54.413Z,99.90
2019-05-21T03:07:25.241Z,99.90
2019-05-21T03:09:51.137Z,99.90
2019-05-21T03:12:18.731Z,99.90
2019-05-21T03:14:46.161Z,99.90
2019-05-21T03:17:14.252Z,99.90
2019-05-21T03:19:41.652Z,99.90
2019-05-21T03:22:09.071Z,99.90
2019-05-21T03:24:36.502Z,99.90
2019-05-21T03:27:04.390Z,99.90
2019-05-21T03:29:32.194Z,99.90
2019-05-21T03:31:59.652Z,99.90
2019-05-21T03:34:27.062Z,99.90
2019-05-21T03:36:54.646Z,99.90
2019-05-21T03:39:22.085Z,99.90
2019-05-21T03:41:49.779Z,99.90
2019-05-21T03:44:17.171Z,99.90
2019-05-21T03:46:44.581Z,99.90
2019-05-21T03:49:11.975Z,99.90
2019-05-21T03:51:39.668Z,99.90
2019-05-21T03:54:07.301Z,99.90
2019-05-21T03:56:34.899Z,99.90
2019-05-21T03:59:02.311Z,99.90
2019-05-21T04:01:29.892Z,99.90
2019-05-21T04:03:57.288Z,99.90
2019-05-21T04:06:28.745Z,99.90
2019-05-21T04:08:53.894Z,99.90
2019-05-21T04:11:21.296Z,99.90
2019-05-21T04:13:48.740Z,99.90
2019-05-21T04:16:25.249Z,99.90
2019-05-21T04:19:02.192Z,99.90
2019-05-21T04:21:29.639Z,99.90
2019-05-21T04:23:57.052Z,99.90
2019-05-21T04:26:24.699Z,99.90
2019-05-21T04:28:53.496Z,99.90
2019-05-21T04:31:20.979Z,99.90
2019-05-21T04:33:48.377Z,99.90
2019-05-21T04:36:15.887Z,99.90
2019-05-21T04:38:43.286Z,99.90
2019-05-21T04:41:10.697Z,99.90
2019-05-21T04:43:38.122Z,99.90
2019-05-21T04:46:05.528Z,99.90
2019-05-21T04:48:32.937Z,99.90
2019-05-21T04:51:00.519Z,99.90
2019-05-21T04:53:27.938Z,99.90
2019-05-21T04:55:55.334Z,99.90
2019-05-21T04:58:22.777Z,99.90
2019-05-21T05:00:50.187Z,99.90
2019-05-21T05:03:17.583Z,99.90
2019-05-21T05:05:45.166Z,99.90
2019-05-21T05:08:12.561Z,99.90
2019-05-21T05:10:39.963Z,99.90
2019-05-21T05:13:07.417Z,99.90
2019-05-21T05:15:34.810Z,99.90
2019-05-21T05:18:02.326Z,99.90
2019-05-21T05:20:29.752Z,99.90
2019-05-21T05:22:57.156Z,99.90
2019-05-21T05:25:24.640Z,99.90
2019-05-21T05:27:52.534Z,99.90
2019-05-21T05:30:20.036Z,99.90
2019-05-21T05:32:47.427Z,99.90
2019-05-21T05:35:16.991Z,99.90
2019-05-21T05:37:48.355Z,99.90
2019-05-21T05:40:14.735Z,99.90
2019-05-21T05:42:42.472Z,99.90
2019-05-21T05:45:10.386Z,99.90
2019-05-21T05:47:37.870Z,99.90
2019-05-21T05:50:07.453Z,99.90
2019-05-21T05:52:34.849Z,99.90
2019-05-21T05:55:02.302Z,99.90
2019-05-21T05:57:29.882Z,99.90
2019-05-21T05:59:57.283Z,99.90
2019-05-21T06:02:24.683Z,99.90
2019-05-21T06:04:52.270Z,99.90
2019-05-21T06:07:19.671Z,99.90
2019-05-21T06:09:47.081Z,99.90
2019-05-21T06:12:14.554Z,99.90
2019-05-21T06:14:41.954Z,99.90
2019-05-21T06:17:09.360Z,99.90
2019-05-21T06:19:36.942Z,99.90
2019-05-21T06:22:04.338Z,99.90
2019-05-21T06:24:31.747Z,99.90
2019-05-21T06:26:59.210Z,99.90
2019-05-21T06:29:27.311Z,99.90
2019-05-21T06:31:54.736Z,99.90
2019-05-21T06:34:22.253Z,99.90
2019-05-21T06:36:49.600Z,99.90
2019-05-21T06:39:16.874Z,99.90
2019-05-21T06:41:44.520Z,99.90
2019-05-21T06:44:13.062Z,99.90
2019-05-21T06:46:42.305Z,99.90
2019-05-21T06:49:09.766Z,99.90
2019-05-21T06:51:37.174Z,99.90
2019-05-21T06:54:04.609Z,99.90
2019-05-21T06:56:32.363Z,99.90
2019-05-21T06:58:59.814Z,99.90
2019-05-21T07:01:29.241Z,99.90
2019-05-21T07:03:56.421Z,99.90
2019-05-21T07:06:23.820Z,99.90
2019-05-21T07:08:51.209Z,99.90
2019-05-21T07:11:18.651Z,99.90
2019-05-21T07:13:46.059Z,99.90
2019-05-21T07:16:13.469Z,99.90
2019-05-21T07:18:41.638Z,99.90
2019-05-21T07:21:09.224Z,99.90
2019-05-21T07:23:36.616Z,99.90
2019-05-21T07:26:04.058Z,99.90
2019-05-21T07:28:31.987Z,99.90
2019-05-21T07:30:59.373Z,99.90
2019-05-21T07:33:27.050Z,99.90
2019-05-21T07:35:54.442Z,99.90
2019-05-21T07:38:21.849Z,99.90
2019-05-21T07:40:49.332Z,99.90
2019-05-21T07:43:16.734Z,99.90
2019-05-21T07:45:44.202Z,99.90
2019-05-21T07:48:12.039Z,99.90
2019-05-21T07:50:39.440Z,99.90
2019-05-21T07:53:06.847Z,99.90
2019-05-21T07:55:34.661Z,99.90
2019-05-21T07:58:02.330Z,99.90
2019-05-21T08:00:29.725Z,99.90
2019-05-21T08:02:57.187Z,99.90
2019-05-21T08:05:24.583Z,99.90
2019-05-21T08:07:51.978Z,99.90
2019-05-21T08:10:19.466Z,99.90
2019-05-21T08:12:46.861Z,99.90
2019-05-21T08:15:14.672Z,99.90
2019-05-21T08:17:42.314Z,99.90
2019-05-21T08:20:11.144Z,99.90
2019-05-21T08:22:38.643Z,99.90
2019-05-21T08:25:06.529Z,99.90
2019-05-21T08:27:34.109Z,99.90
2019-05-21T08:30:01.795Z,99.90
2019-05-21T08:32:29.255Z,99.90
2019-05-21T08:34:56.648Z,99.90
2019-05-21T08:37:24.038Z,99.90
2019-05-21T08:39:51.511Z,99.90
2019-05-21T08:42:18.915Z,99.90
2019-05-21T08:44:47.234Z,99.90
2019-05-21T08:47:14.978Z,99.90
2019-05-21T08:49:44.302Z,99.90
2019-05-21T08:52:11.567Z,99.90
2019-05-21T08:54:51.094Z,99.90
2019-05-21T08:57:19.050Z,99.90
2019-05-21T08:59:46.412Z,99.90
2019-05-21T09:02:13.949Z,99.90
2019-05-21T09:04:46.161Z,99.90
2019-05-21T09:07:10.652Z,99.90
2019-05-21T09:09:49.129Z,99.90
2019-05-21T09:12:07.759Z,99.90
2019-05-21T09:14:35.212Z,99.90
2019-05-21T09:17:02.674Z,99.90
2019-05-21T09:19:30.047Z,99.90
2019-05-21T09:21:57.448Z,99.90
2019-05-21T09:24:24.964Z,99.90
2019-05-21T09:26:52.460Z,99.90
2019-05-21T09:29:20.149Z,99.90
2019-05-21T09:31:47.567Z,99.90
2019-05-21T09:34:15.018Z,99.90
2019-05-21T09:36:42.375Z,99.90
2019-05-21T09:39:09.823Z,99.90
2019-05-21T09:41:37.226Z,99.90
2019-05-21T09:44:04.614Z,99.90
2019-05-21T09:46:32.277Z,99.90
2019-05-21T09:48:59.675Z,99.90
2019-05-21T09:51:27.075Z,99.90
2019-05-21T09:53:54.893Z,99.90
2019-05-21T09:56:35.586Z,99.90
2019-05-21T09:59:12.381Z,99.90
2019-05-21T10:01:47.675Z,99.90
2019-05-21T10:04:13.247Z,99.90
2019-05-21T10:06:40.993Z,99.90
2019-05-21T10:09:11.388Z,99.90
2019-05-21T10:11:38.990Z,99.90
2019-05-21T10:14:07.053Z,99.90
2019-05-21T10:16:34.482Z,99.90
2019-05-21T10:19:01.858Z,99.90
2019-05-21T10:21:29.285Z,99.90
2019-05-21T10:23:56.692Z,99.90
2019-05-21T10:26:24.280Z,99.90
2019-05-21T10:28:52.354Z,99.90
2019-05-21T10:31:19.839Z,99.90
2019-05-21T10:33:47.267Z,99.90
2019-05-21T10:36:15.140Z,99.90
2019-05-21T10:38:42.538Z,99.90
2019-05-21T10:41:11.072Z,99.90
2019-05-21T10:43:38.498Z,99.90
2019-05-21T10:46:06.007Z,99.90
2019-05-21T10:48:33.415Z,99.90
2019-05-21T10:51:00.864Z,99.90
2019-05-21T10:53:31.086Z,99.90
2019-05-21T10:55:58.486Z,99.90
2019-05-21T10:58:26.198Z,99.90
2019-05-21T11:00:57.830Z,99.90
2019-05-21T11:03:47.326Z,99.90
2019-05-21T11:06:15.163Z,99.90
2019-05-21T11:08:42.554Z,99.90
2019-05-21T11:11:10.094Z,99.90
2019-05-21T11:13:39.421Z,99.90
2019-05-21T11:16:07.146Z,99.90
2019-05-21T11:18:34.562Z,99.90
2019-05-21T11:21:02.005Z,99.90
2019-05-21T11:23:29.388Z,99.90
2019-05-21T11:25:57.371Z,99.90
2019-05-21T11:28:25.031Z,99.90
2019-05-21T11:30:52.710Z,99.90
2019-05-21T11:33:20.157Z,99.90
2019-05-21T11:35:47.540Z,99.90
2019-05-21T11:38:14.936Z,99.90
2019-05-21T11:40:50.740Z,99.90
2019-05-21T11:43:21.846Z,99.90
2019-05-21T11:45:49.298Z,99.90
2019-05-21T11:48:16.718Z,99.90
2019-05-21T11:50:44.115Z,99.90
2019-05-21T11:53:12.007Z,99.90
2019-05-21T11:55:39.486Z,99.90
2019-05-21T11:58:06.875Z,99.90
2019-05-21T12:00:34.316Z,99.90
2019-05-21T12:03:01.772Z,99.90
2019-05-21T12:05:29.301Z,99.90
2019-05-21T12:07:56.898Z,99.90
2019-05-21T12:10:24.295Z,99.90
2019-05-21T12:12:51.694Z,99.90
2019-05-21T12:15:21.037Z,99.90
2019-05-21T12:17:48.335Z,99.90
2019-05-21T12:20:16.168Z,99.90
2019-05-21T12:22:43.609Z,99.90
2019-05-21T12:25:11.411Z,99.90
2019-05-21T12:27:39.326Z,99.20
2019-05-21T12:30:07.734Z,98.90
2019-05-21T12:32:35.130Z,98.10
2019-05-21T12:35:02.822Z,99.40
2019-05-21T12:37:30.533Z,99.90
2019-05-21T12:39:57.923Z,98.40
2019-05-21T12:42:25.335Z,98.00
2019-05-21T12:44:53.839Z,99.10
2019-05-21T12:47:21.223Z,98.70
2019-05-21T12:49:50.452Z,97.70
2019-05-21T12:52:17.927Z,99.00
2019-05-21T12:54:45.328Z,95.90
2019-05-21T12:57:12.728Z,95.40
2019-05-21T12:59:40.209Z,95.40
2019-05-21T13:02:07.594Z,95.60
2019-05-21T13:04:34.920Z,96.10
2019-05-21T13:07:02.433Z,86.50
2019-05-21T13:09:32.874Z,85.80
2019-05-21T13:11:59.036Z,84.60
2019-05-21T13:14:26.495Z,83.50
2019-05-21T13:16:53.906Z,82.20
2019-05-21T13:19:22.973Z,80.90
2019-05-21T13:21:50.589Z,82.50
2019-05-21T13:24:17.988Z,83.40
2019-05-21T13:26:45.392Z,81.80
2019-05-21T13:29:12.975Z,81.50
2019-05-21T13:31:40.856Z,80.70
2019-05-21T13:34:08.506Z,83.40
2019-05-21T13:36:35.971Z,81.10
2019-05-21T13:39:06.271Z,80.00
2019-05-21T13:41:33.667Z,80.20
2019-05-21T13:44:01.188Z,81.80
2019-05-21T13:46:28.571Z,82.20
2019-05-21T13:48:55.949Z,81.90
2019-05-21T13:51:23.511Z,81.50
2019-05-21T13:53:50.924Z,82.20
2019-05-21T13:56:18.320Z,82.60
2019-05-21T13:58:46.079Z,79.60
2019-05-21T14:01:16.053Z,81.20
2019-05-21T14:03:45.727Z,82.60
2019-05-21T14:06:13.503Z,81.10
2019-05-21T14:08:41.003Z,81.50
2019-05-21T14:11:08.725Z,81.60
2019-05-21T14:13:36.274Z,81.90
2019-05-21T14:16:03.897Z,82.80
2019-05-21T14:18:31.291Z,84.00
2019-05-21T14:20:58.764Z,84.10
2019-05-21T14:23:26.164Z,82.00
2019-05-21T14:25:54.862Z,83.50
2019-05-21T14:28:22.407Z,84.40
2019-05-21T14:30:50.120Z,86.90
2019-05-21T14:33:17.527Z,86.70
2019-05-21T14:35:45.297Z,85.00
2019-05-21T14:38:12.720Z,84.40
2019-05-21T14:40:40.211Z,84.20
2019-05-21T14:43:07.690Z,85.10
2019-05-21T14:45:35.089Z,85.80
2019-05-21T14:48:02.589Z,86.80
2019-05-21T14:50:30.043Z,86.80
2019-05-21T14:52:57.510Z,88.30
2019-05-21T14:55:24.903Z,91.20
2019-05-21T14:57:52.350Z,90.20
2019-05-21T15:00:32.655Z,89.30
2019-05-21T15:03:00.184Z,89.50
2019-05-21T15:05:27.593Z,89.70
2019-05-21T15:07:55.007Z,90.10
2019-05-21T15:10:22.495Z,90.70
2019-05-21T15:12:49.891Z,90.10
2019-05-21T15:15:17.297Z,89.20
2019-05-21T15:17:44.953Z,90.70
2019-05-21T15:20:23.449Z,90.40
2019-05-21T15:22:51.031Z,90.90
2019-05-21T15:25:18.453Z,90.60
2019-05-21T15:27:45.974Z,91.70
2019-05-21T15:30:14.639Z,92.10
2019-05-21T15:32:42.570Z,93.50
2019-05-21T15:35:09.991Z,92.80
2019-05-21T15:37:37.646Z,91.70
2019-05-21T15:40:05.466Z,91.20
2019-05-21T15:42:32.862Z,92.30
2019-05-21T15:45:00.452Z,92.70
2019-05-21T15:47:27.872Z,93.00
2019-05-21T15:49:55.290Z,93.70
2019-05-21T15:52:22.806Z,93.40
2019-05-21T15:54:50.208Z,93.20
2019-05-21T15:57:17.628Z,92.80
2019-05-21T15:59:45.099Z,95.20
2019-05-21T16:02:12.518Z,94.90
2019-05-21T16:04:39.943Z,95.50
2019-05-21T16:07:07.428Z,96.40
2019-05-21T16:09:36.364Z,94.80
2019-05-21T16:12:03.766Z,95.10
2019-05-21T16:14:31.248Z,95.40
2019-05-21T16:17:00.455Z,99.90
2019-05-21T16:19:27.874Z,99.90
2019-05-21T16:21:55.324Z,99.90
2019-05-21T16:24:22.727Z,99.90
2019-05-21T16:26:50.134Z,99.90
2019-05-21T16:29:17.592Z,99.90
2019-05-21T16:31:45.000Z,99.90
2019-05-21T16:34:12.599Z,99.90
2019-05-21T16:36:40.418Z,99.90
2019-05-21T16:39:08.444Z,99.90
2019-05-21T16:41:44.692Z,99.90
2019-05-21T16:44:05.466Z,99.90
2019-05-21T16:46:34.650Z,99.90
2019-05-21T16:49:02.059Z,99.90
2019-05-21T16:51:29.498Z,99.90
2019-05-21T16:53:56.897Z,99.90
2019-05-21T16:56:26.124Z,99.90
2019-05-21T16:58:53.567Z,99.90
2019-05-21T17:01:21.401Z,99.90
2019-05-21T17:03:59.437Z,99.90
2019-05-21T17:06:18.046Z,99.90
2019-05-21T17:08:45.443Z,99.90
2019-05-21T17:11:12.881Z,99.90
2019-05-21T17:13:40.349Z,99.90
2019-05-21T17:16:07.748Z,99.90
2019-05-21T17:18:35.181Z,99.90
2019-05-21T17:21:02.936Z,99.90
2019-05-21T17:23:30.346Z,99.90
2019-05-21T17:25:57.735Z,99.90
2019-05-21T17:28:25.222Z,99.90
2019-05-21T17:30:52.796Z,99.90
2019-05-21T17:33:20.985Z,99.90
2019-05-21T17:35:48.666Z,99.90
2019-05-21T17:38:16.062Z,99.90
2019-05-21T17:40:43.491Z,99.90
2019-05-21T17:43:32.645Z,99.90
2019-05-21T17:46:00.216Z,99.90
2019-05-21T17:48:27.623Z,99.90
2019-05-21T17:50:55.194Z,99.90
2019-05-21T17:53:22.605Z,99.90
2019-05-21T17:55:50.016Z,99.90
2019-05-21T17:58:17.621Z,99.90
2019-05-21T18:00:52.650Z,99.90
2019-05-21T18:03:20.099Z,99.90
2019-05-21T18:05:48.104Z,99.90
2019-05-21T18:08:17.214Z,99.90
2019-05-21T18:10:45.399Z,99.90
2019-05-21T18:13:13.199Z,99.90
2019-05-21T18:15:40.607Z,99.90
2019-05-21T18:18:08.682Z,99.90
2019-05-21T18:20:37.616Z,99.90
2019-05-21T18:23:05.754Z,99.90
2019-05-21T18:25:33.382Z,99.90
2019-05-21T18:28:02.096Z,99.90
2019-05-21T18:30:29.759Z,99.90
2019-05-21T18:32:57.559Z,99.90
2019-05-21T18:35:25.463Z,99.90
2019-05-21T18:37:53.054Z,99.90
2019-05-21T18:40:20.819Z,99.90
2019-05-21T18:42:48.480Z,99.90
2019-05-21T18:45:16.607Z,99.90
2019-05-21T18:47:44.440Z,99.90
2019-05-21T18:50:13.351Z,99.90
2019-05-21T18:52:40.810Z,99.90
2019-05-21T18:55:11.170Z,99.90
2019-05-21T18:57:38.630Z,99.90
2019-05-21T19:00:06.672Z,99.90
2019-05-21T19:02:34.110Z,99.90
2019-05-21T19:05:01.540Z,99.90
2019-05-21T19:07:28.923Z,99.90
2019-05-21T19:09:56.364Z,99.90
2019-05-21T19:12:36.882Z,99.90
2019-05-21T19:14:53.179Z,99.90
2019-05-21T19:17:34.747Z,99.90
2019-05-21T19:19:49.912Z,99.90
2019-05-21T19:22:17.257Z,99.90
2019-05-21T19:24:44.858Z,99.90
2019-05-21T19:27:12.363Z,99.90
2019-05-21T19:29:40.120Z,99.90
2019-05-21T19:32:07.866Z,99.90
2019-05-21T19:34:35.274Z,99.90
2019-05-21T19:37:02.943Z,99.90
2019-05-21T19:39:31.442Z,99.90
2019-05-21T19:41:58.950Z,99.90
2019-05-21T19:44:26.773Z,99.90
2019-05-21T19:46:54.796Z,99.90
2019-05-21T19:49:22.442Z,99.90
2019-05-21T19:51:50.093Z,99.90
2019-05-21T19:54:17.913Z,99.90
2019-05-21T19:56:45.305Z,99.90
2019-05-21T19:59:12.953Z,99.90
2019-05-21T20:01:41.023Z,99.90
2019-05-21T20:04:10.694Z,99.90
2019-05-21T20:06:38.421Z,99.90
2019-05-21T20:09:09.580Z,99.90
2019-05-21T20:11:37.107Z,99.90
2019-05-21T20:14:05.090Z,99.90
2019-05-21T20:16:33.925Z,99.90
2019-05-21T20:19:01.848Z,99.90
2019-05-21T20:21:31.540Z,99.90
2019-05-21T20:23:59.740Z,99.90
2019-05-21T20:26:29.420Z,99.90
2019-05-21T20:28:57.334Z,99.90
2019-05-21T20:31:24.803Z,99.90
2019-05-21T20:33:53.478Z,99.90
2019-05-21T20:36:21.780Z,99.90
2019-05-21T20:38:49.714Z,99.90
2019-05-21T20:41:17.836Z,99.90
2019-05-21T20:43:58.596Z,99.90
2019-05-21T20:46:17.323Z,99.90
2019-05-21T20:48:45.110Z,99.90
2019-05-21T20:51:12.712Z,99.90
2019-05-21T20:53:40.635Z,99.90
2019-05-21T20:56:08.235Z,99.90
2019-05-21T20:58:35.632Z,99.90
2019-05-21T21:01:05.017Z,99.90
2019-05-21T21:03:33.156Z,99.90
2019-05-21T21:06:01.206Z,99.90
2019-05-21T21:08:29.976Z,99.90
2019-05-21T21:10:57.388Z,99.90
2019-05-21T21:13:25.403Z,99.90
2019-05-21T21:15:52.854Z,99.90
2019-05-21T21:18:20.331Z,99.90
2019-05-21T21:20:48.462Z,99.90
2019-05-21T21:23:17.715Z,99.90
2019-05-21T21:26:05.623Z,99.90
2019-05-21T21:28:33.014Z,99.90
2019-05-21T21:31:00.421Z,99.90
2019-05-21T21:33:28.798Z,99.90
2019-05-21T21:35:56.390Z,99.90
2019-05-21T21:38:26.876Z,99.90
2019-05-21T21:40:55.166Z,99.90
2019-05-21T21:43:22.586Z,99.90
2019-05-21T21:45:51.193Z,99.90
2019-05-21T21:48:19.371Z,99.90
2019-05-21T21:50:47.668Z,99.90
2019-05-21T21:53:15.103Z,99.90
2019-05-21T21:55:42.690Z,99.90
2019-05-21T21:58:10.099Z,99.90
2019-05-21T22:01:28.143Z,99.90
2019-05-21T22:04:00.314Z,99.90
2019-05-21T22:06:29.343Z,99.90
2019-05-21T22:08:57.209Z,99.90
2019-05-21T22:11:24.602Z,99.90
2019-05-21T22:13:52.400Z,99.90
2019-05-21T22:16:21.036Z,99.90
2019-05-21T22:18:49.150Z,99.90
2019-05-21T22:21:17.069Z,99.90
2019-05-21T22:23:44.819Z,99.90
2019-05-21T22:26:12.782Z,99.90
2019-05-21T22:28:40.888Z,99.90
2019-05-21T22:31:08.284Z,99.90
2019-05-21T22:33:36.489Z,99.90
2019-05-21T22:36:04.521Z,99.90
2019-05-21T22:38:32.462Z,99.90
2019-05-21T22:40:59.917Z,99.90
2019-05-21T22:43:27.715Z,99.90
2019-05-21T22:45:55.318Z,99.90
2019-05-21T22:48:22.740Z,99.90
2019-05-21T22:50:50.306Z,99.90
2019-05-21T22:53:17.713Z,99.90
2019-05-21T22:55:45.134Z,99.90
2019-05-21T22:58:12.574Z,99.90
2019-05-21T23:00:40.194Z,99.90
2019-05-21T23:03:07.594Z,99.90
2019-05-21T23:05:35.046Z,99.90
2019-05-21T23:08:04.346Z,99.90
2019-05-21T23:10:31.758Z,99.90
2019-05-21T23:12:59.823Z,99.90
2019-05-21T23:15:27.227Z,99.90
2019-05-21T23:17:55.780Z,99.90
2019-05-21T23:20:27.138Z,99.90
2019-05-21T23:22:56.132Z,99.90
2019-05-21T23:25:23.530Z,99.90
2019-05-21T23:27:51.579Z,99.90
2019-05-21T23:30:19.168Z,99.90
2019-05-21T23:32:46.558Z,99.90
2019-05-21T23:35:15.701Z,99.90
2019-05-21T23:37:44.007Z,99.90
2019-05-21T23:40:12.210Z,99.90
2019-05-21T23:42:41.642Z,99.90
2019-05-21T23:45:10.647Z,99.90
2019-05-21T23:47:38.423Z,99.90
2019-05-21T23:50:07.348Z,99.90
2019-05-21T23:52:37.129Z,99.90
2019-05-21T23:55:05.399Z,99.90
2019-05-21T23:57:33.572Z,99.90
